Time;durP1;ratioP1;P1;durP2;ratioP2;P2;SDS_P1;SDS_P2;PMS_P1;PMS_P2;Temp;Humidity;BMP_temperature;BMP_pressure;BME280_temperature;BME280_humidity;BME280_pressure;Samples;Min_cycle;Max_cycle;Signal;HPM_P1;HPM_P2
2023/03/21 00:01:25;;;;;;;2.60;1.20;;;9.60;73.00;;;;;;5006237;28;20117;-77
2023/03/21 00:03:50;;;;;;;7.15;1.75;;;9.50;72.90;;;;;;5011755;28;20044;-78
2023/03/21 00:06:16;;;;;;;4.65;1.60;;;9.60;73.10;;;;;;5012283;28;20201;-78
2023/03/21 00:08:41;;;;;;;5.85;1.30;;;9.60;73.20;;;;;;5029603;28;20132;-77
2023/03/21 00:11:08;;;;;;;1.55;1.05;;;9.60;74.20;;;;;;5020274;28;20127;-79
2023/03/21 00:13:37;;;;;;;4.40;1.38;;;9.60;73.30;;;;;;5016295;28;20049;-79
2023/03/21 00:16:09;;;;;;;4.07;1.10;;;9.50;73.30;;;;;;5020212;28;20037;-79
2023/03/21 00:18:40;;;;;;;3.42;1.33;;;9.60;73.50;;;;;;5029541;28;20106;-77
2023/03/21 00:21:07;;;;;;;4.05;1.90;;;9.50;73.40;;;;;;5023900;28;20038;-75
2023/03/21 00:23:33;;;;;;;5.20;2.30;;;9.50;73.50;;;;;;5022359;28;20057;-79
2023/03/21 00:25:58;;;;;;;4.10;2.28;;;9.50;73.60;;;;;;5022636;28;20098;-78
2023/03/21 00:28:24;;;;;;;5.40;2.22;;;9.50;73.60;;;;;;5006283;28;20044;-78
2023/03/21 00:30:50;;;;;;;5.35;2.45;;;9.50;73.60;;;;;;5022104;28;20750;-78
2023/03/21 00:33:19;;;;;;;7.13;3.05;;;9.50;73.70;;;;;;5012835;28;20048;-79
2023/03/21 00:35:46;;;;;;;6.05;2.70;;;9.50;73.80;;;;;;4999715;28;20041;-79
2023/03/21 00:38:12;;;;;;;3.80;1.92;;;9.50;73.70;;;;;;4996520;28;20099;-78
2023/03/21 00:40:38;;;;;;;2.22;1.45;;;9.50;73.80;;;;;;4988178;28;20036;-77
2023/03/21 00:43:03;;;;;;;5.18;1.70;;;9.50;73.80;;;;;;4995924;28;20120;-79
2023/03/21 00:45:30;;;;;;;2.97;1.60;;;9.50;73.80;;;;;;5003300;28;20049;-78
2023/03/21 00:47:56;;;;;;;5.07;1.75;;;9.50;73.80;;;;;;5029005;28;20777;-80
2023/03/21 00:50:21;;;;;;;2.03;1.42;;;9.40;73.80;;;;;;5032303;28;20120;-78
2023/03/21 00:52:47;;;;;;;6.25;1.83;;;9.40;73.80;;;;;;4990956;28;20040;-77
2023/03/21 00:55:13;;;;;;;4.70;1.50;;;9.40;73.90;;;;;;5000432;28;20029;-79
2023/03/21 00:57:39;;;;;;;3.88;1.50;;;9.40;74.00;;;;;;4985847;28;20392;-79
2023/03/21 01:00:06;;;;;;;5.05;1.23;;;9.40;74.00;;;;;;5034711;28;20033;-78
2023/03/21 01:02:32;;;;;;;2.97;1.40;;;9.40;74.10;;;;;;5030601;28;20032;-79
2023/03/21 01:04:57;;;;;;;4.10;1.40;;;9.40;74.20;;;;;;4984746;28;20037;-79
2023/03/21 01:07:23;;;;;;;3.00;1.10;;;9.40;74.20;;;;;;5023162;28;20500;-77
2023/03/21 01:09:49;;;;;;;1.92;1.23;;;9.40;74.20;;;;;;5016207;28;20526;-78
2023/03/21 01:12:15;;;;;;;2.67;1.30;;;9.30;74.20;;;;;;5004637;28;20041;-79
2023/03/21 01:14:41;;;;;;;2.55;1.27;;;9.30;74.20;;;;;;5014637;28;20035;-78
2023/03/21 01:17:06;;;;;;;4.25;1.85;;;9.30;74.20;;;;;;4993957;28;20025;-78
2023/03/21 01:19:32;;;;;;;3.47;1.67;;;9.30;74.30;;;;;;5018355;28;20127;-78
2023/03/21 01:21:58;;;;;;;6.45;1.40;;;9.20;74.30;;;;;;5015249;28;20043;-79
2023/03/21 01:24:23;;;;;;;4.75;1.55;;;9.20;74.40;;;;;;5032228;28;20047;-79
2023/03/21 01:26:49;;;;;;;5.82;1.80;;;9.20;74.50;;;;;;5015785;28;20487;-77
2023/03/21 01:29:14;;;;;;;4.50;1.58;;;9.20;74.60;;;;;;5013674;28;20136;-77
2023/03/21 01:31:40;;;;;;;2.80;1.20;;;9.10;74.60;;;;;;5008646;28;20156;-78
2023/03/21 01:34:05;;;;;;;2.85;1.40;;;9.10;74.60;;;;;;4982500;28;20045;-79
2023/03/21 01:36:31;;;;;;;3.22;1.38;;;9.10;74.60;;;;;;4994084;28;20053;-78
2023/03/21 01:38:57;;;;;;;2.63;1.27;;;9.10;74.70;;;;;;4990031;28;20040;-77
2023/03/21 01:41:27;;;;;;;6.75;1.42;;;9.10;74.80;;;;;;4994402;28;20103;-79
2023/03/21 01:43:53;;;;;;;7.60;1.52;;;9.00;74.80;;;;;;5007611;28;20532;-79
2023/03/21 01:46:34;;;;;;;3.58;1.40;;;9.00;74.80;;;;;;4993912;28;20049;-78
2023/03/21 01:49:04;;;;;;;2.95;1.60;;;9.00;75.00;;;;;;5001304;28;20043;-76
2023/03/21 01:51:32;;;;;;;2.53;1.40;;;9.00;74.90;;;;;;5032591;28;20075;-79
2023/03/21 01:53:59;;;;;;;2.88;1.30;;;8.90;74.90;;;;;;5014586;28;20435;-78
2023/03/21 01:56:32;;;;;;;2.45;1.10;;;8.90;74.90;;;;;;5032438;28;20098;-75
2023/03/21 01:59:07;;;;;;;1.80;1.08;;;8.80;75.00;;;;;;5016975;28;20411;-79
2023/03/21 02:01:33;;;;;;;3.92;1.40;;;8.80;75.00;;;;;;5017240;28;20044;-77
2023/03/21 02:04:02;;;;;;;5.30;1.40;;;8.70;75.00;;;;;;4986352;28;20519;-78
2023/03/21 02:06:30;;;;;;;2.72;1.42;;;8.70;75.10;;;;;;5011295;28;20516;-79
2023/03/21 02:09:01;;;;;;;2.33;1.10;;;8.70;75.20;;;;;;5009996;28;20030;-79
2023/03/21 02:11:26;;;;;;;5.83;1.20;;;8.60;75.20;;;;;;4996937;28;20172;-77
2023/03/21 02:13:52;;;;;;;4.53;1.50;;;8.60;75.20;;;;;;5025642;28;20127;-79
2023/03/21 02:16:23;;;;;;;3.10;1.52;;;8.50;75.20;;;;;;5027547;28;20188;-78
2023/03/21 02:19:14;;;;;;;1.70;1.30;;;8.50;75.40;;;;;;5012160;28;20044;-77
2023/03/21 02:21:51;;;;;;;2.53;1.45;;;8.50;75.70;;;;;;5011690;28;20374;-77
2023/03/21 02:24:54;;;;;;;4.18;1.30;;;8.50;75.50;;;;;;5001192;28;20046;-78
2023/03/21 02:27:20;;;;;;;3.30;1.35;;;8.50;75.50;;;;;;5017995;28;20033;-78
2023/03/21 02:29:50;;;;;;;3.15;1.20;;;8.40;75.30;;;;;;5010480;28;20049;-78
2023/03/21 02:32:28;;;;;;;2.40;1.27;;;8.30;75.30;;;;;;5006747;28;20037;-78
2023/03/21 02:35:15;;;;;;;5.10;1.30;;;8.30;75.50;;;;;;5008601;28;20053;-77
2023/03/21 02:38:01;;;;;;;1.73;1.25;;;8.20;75.70;;;;;;5028507;28;20063;-78
2023/03/21 02:40:37;;;;;;;3.03;1.23;;;8.20;75.70;;;;;;5034060;28;20044;-78
2023/03/21 02:43:07;;;;;;;1.52;1.35;;;8.20;75.70;;;;;;5026842;28;20087;-78
2023/03/21 02:46:07;;;;;;;3.13;1.13;;;8.10;75.60;;;;;;5007614;28;20092;-78
2023/03/21 02:48:38;;;;;;;3.88;1.30;;;8.10;75.90;;;;;;5022120;28;20044;-78
2023/03/21 02:51:04;;;;;;;2.70;1.15;;;8.10;75.90;;;;;;5014339;28;20047;-77
2023/03/21 02:53:32;;;;;;;3.13;1.00;;;8.00;75.90;;;;;;5001643;28;20542;-79
2023/03/21 02:55:58;;;;;;;2.92;1.40;;;8.00;76.10;;;;;;4998033;28;20568;-78
2023/03/21 02:58:23;;;;;;;4.60;1.40;;;8.00;76.20;;;;;;5021408;28;20037;-77
2023/03/21 03:00:49;;;;;;;4.00;1.50;;;8.00;76.20;;;;;;5007990;28;20033;-77
2023/03/21 03:03:15;;;;;;;2.33;1.63;;;8.00;76.20;;;;;;5022539;28;20043;-78
2023/03/21 03:05:44;;;;;;;1.98;1.60;;;7.90;76.10;;;;;;5034684;28;20090;-79
2023/03/21 03:08:44;;;;;;;3.28;1.23;;;7.80;76.20;;;;;;5036945;28;20040;-75
2023/03/21 03:11:28;;;;;;;5.22;1.50;;;7.80;76.40;;;;;;5052617;28;20462;-79
2023/03/21 03:14:25;;;;;;;3.17;1.25;;;7.80;76.50;;;;;;5005589;28;20045;-77
2023/03/21 03:16:55;;;;;;;3.85;1.35;;;7.70;76.50;;;;;;5014263;28;20596;-79
2023/03/21 03:19:31;;;;;;;3.08;1.60;;;7.70;76.50;;;;;;5037162;28;20078;-77
2023/03/21 03:22:08;;;;;;;3.22;1.48;;;7.70;76.70;;;;;;5011039;28;20053;-77
2023/03/21 03:24:36;;;;;;;3.88;1.42;;;7.70;76.70;;;;;;4998404;28;20148;-79
2023/03/21 03:27:05;;;;;;;4.57;1.60;;;7.70;76.70;;;;;;4999112;28;20040;-76
2023/03/21 03:29:32;;;;;;;3.85;1.50;;;7.70;76.80;;;;;;4997427;28;20034;-78
2023/03/21 03:32:05;;;;;;;5.22;1.50;;;7.70;76.80;;;;;;4982648;28;20072;-79
2023/03/21 03:34:33;;;;;;;8.45;5.43;;;7.70;76.90;;;;;;4979416;28;20033;-78
2023/03/21 03:36:59;;;;;;;5.90;3.63;;;7.70;76.90;;;;;;4994822;28;20479;-78
2023/03/21 03:40:04;;;;;;;7.13;3.03;;;7.70;77.00;;;;;;5022991;28;20917;-79
2023/03/21 03:42:42;;;;;;;5.75;2.40;;;7.70;77.30;;;;;;5024865;28;20041;-76
2023/03/21 03:45:08;;;;;;;3.35;1.88;;;7.70;77.20;;;;;;5013146;28;20128;-78
2023/03/21 03:47:39;;;;;;;3.08;2.00;;;7.70;77.20;;;;;;4986144;28;20130;-78
2023/03/21 03:50:11;;;;;;;;;;;7.70;77.30;;;;;;5011683;28;20041;-77
2023/03/21 03:52:41;;;;;;;4.22;2.38;;;7.70;77.20;;;;;;5019148;28;19967;-77
2023/03/21 03:55:08;;;;;;;5.93;3.17;;;7.70;77.20;;;;;;5036646;28;20056;-77
2023/03/21 03:57:34;;;;;;;10.82;3.30;;;7.80;78.20;;;;;;4984042;28;20049;-78
2023/03/21 03:59:59;;;;;;;6.10;2.78;;;7.70;77.40;;;;;;5011149;28;20040;-77
2023/03/21 04:02:25;;;;;;;5.53;2.58;;;7.80;77.60;;;;;;5032775;28;20037;-76
2023/03/21 04:04:52;;;;;;;3.22;2.30;;;7.80;77.60;;;;;;5030435;28;20060;-79
2023/03/21 04:07:20;;;;;;;5.88;1.88;;;7.80;77.70;;;;;;5048679;28;20037;-79
2023/03/21 04:09:45;;;;;;;4.35;2.33;;;7.80;77.70;;;;;;5025392;28;20040;-79
2023/03/21 04:12:11;;;;;;;3.05;2.20;;;7.80;77.70;;;;;;5031799;28;20041;-79
2023/03/21 04:14:37;;;;;;;2.85;1.85;;;7.80;77.90;;;;;;5018693;28;20113;-79
2023/03/21 04:17:03;;;;;;;2.05;1.52;;;7.80;77.90;;;;;;5025432;28;20702;-78
2023/03/21 04:19:28;;;;;;;6.40;1.80;;;7.80;77.90;;;;;;5045967;28;20043;-78
2023/03/21 04:21:54;;;;;;;2.45;1.55;;;7.80;77.90;;;;;;5029915;28;20661;-77
2023/03/21 04:24:19;;;;;;;4.22;1.90;;;7.80;78.00;;;;;;5034933;28;20189;-78
2023/03/21 04:26:45;;;;;;;2.15;1.80;;;7.90;78.10;;;;;;5021555;28;20033;-77
2023/03/21 04:29:11;;;;;;;5.82;1.77;;;7.80;78.00;;;;;;5003345;28;20037;-78
2023/03/21 04:31:36;;;;;;;2.05;1.60;;;7.80;78.00;;;;;;5005945;28;20057;-77
2023/03/21 04:34:04;;;;;;;6.28;1.80;;;7.80;78.00;;;;;;5029649;28;20041;-76
2023/03/21 04:36:37;;;;;;;3.55;2.15;;;7.80;78.10;;;;;;5031667;28;20052;-78
2023/03/21 04:39:11;;;;;;;3.92;1.83;;;7.80;78.10;;;;;;5013067;28;20105;-79
2023/03/21 04:41:40;;;;;;;3.35;1.85;;;7.80;78.20;;;;;;4996494;28;20114;-77
2023/03/21 04:44:06;;;;;;;5.88;2.70;;;7.80;78.20;;;;;;5013779;28;20049;-78
2023/03/21 04:46:32;;;;;;;9.38;3.33;;;7.80;78.20;;;;;;5018224;28;20033;-76
2023/03/21 04:48:58;;;;;;;5.38;2.40;;;7.80;78.30;;;;;;4983249;28;20183;-79
2023/03/21 04:51:23;;;;;;;4.20;2.40;;;7.80;78.40;;;;;;5028555;28;20071;-78
2023/03/21 04:53:51;;;;;;;3.30;2.50;;;7.80;78.40;;;;;;5017479;28;20095;-77
2023/03/21 04:56:17;;;;;;;5.40;2.47;;;7.80;78.50;;;;;;5043351;28;20040;-79
2023/03/21 04:58:43;;;;;;;3.40;1.98;;;7.80;78.60;;;;;;5029240;28;20491;-79
2023/03/21 05:01:08;;;;;;;9.52;2.08;;;7.80;78.70;;;;;;5014370;28;20094;-78
2023/03/21 05:03:39;;;;;;;3.63;2.20;;;7.80;78.60;;;;;;5032405;28;20104;-78
2023/03/21 05:06:07;;;;;;;5.13;1.85;;;7.80;78.60;;;;;;5022045;28;20111;-78
2023/03/21 05:08:34;;;;;;;3.55;1.85;;;7.80;78.70;;;;;;5016905;28;20044;-78
2023/03/21 05:10:59;;;;;;;3.03;2.00;;;7.80;78.80;;;;;;5009496;28;20053;-78
2023/03/21 05:13:25;;;;;;;4.05;2.15;;;7.80;78.80;;;;;;5032659;28;20108;-78
2023/03/21 05:15:50;;;;;;;2.60;2.00;;;7.80;78.80;;;;;;5024413;28;20049;-78
2023/03/21 05:18:23;;;;;;;3.03;1.85;;;7.80;78.80;;;;;;5010495;28;20120;-79
2023/03/21 05:20:52;;;;;;;3.45;1.92;;;7.80;78.80;;;;;;5028555;28;20048;-77
2023/03/21 05:23:18;;;;;;;3.95;2.05;;;7.80;78.90;;;;;;5021515;28;20518;-78
2023/03/21 05:25:44;;;;;;;4.13;2.10;;;7.80;78.90;;;;;;4997405;28;20036;-76
2023/03/21 05:28:09;;;;;;;2.50;1.73;;;7.80;79.10;;;;;;5015135;28;20200;-79
2023/03/21 05:30:35;;;;;;;4.05;2.20;;;7.80;79.20;;;;;;5019579;28;20033;-78
2023/03/21 05:33:01;;;;;;;3.28;1.98;;;7.80;79.10;;;;;;5004735;28;20041;-78
2023/03/21 05:35:26;;;;;;;3.10;2.10;;;7.80;79.20;;;;;;5024135;28;20403;-77
2023/03/21 05:37:52;;;;;;;4.97;2.03;;;7.80;79.20;;;;;;5030775;28;20519;-78
2023/03/21 05:40:18;;;;;;;6.03;2.40;;;7.80;79.20;;;;;;5022779;28;20032;-76
2023/03/21 05:42:44;;;;;;;3.50;1.75;;;7.80;79.20;;;;;;5010966;28;20036;-79
2023/03/21 05:45:10;;;;;;;4.97;2.50;;;7.80;79.20;;;;;;5015397;28;20034;-78
2023/03/21 05:47:36;;;;;;;5.15;2.20;;;7.80;79.30;;;;;;5024222;28;20118;-78
2023/03/21 05:50:01;;;;;;;3.65;2.20;;;7.80;79.30;;;;;;5028864;28;20568;-77
2023/03/21 05:52:28;;;;;;;4.53;2.13;;;7.80;79.30;;;;;;4983037;28;20041;-79
2023/03/21 05:54:54;;;;;;;4.95;2.47;;;7.70;79.30;;;;;;4999280;28;20709;-78
2023/03/21 05:57:19;;;;;;;4.07;2.65;;;7.70;79.40;;;;;;4982328;28;20037;-78
2023/03/21 05:59:45;;;;;;;4.75;2.42;;;7.70;79.40;;;;;;4996337;28;20586;-77
2023/03/21 06:02:11;;;;;;;5.90;2.63;;;7.70;79.40;;;;;;5018254;28;20095;-78
2023/03/21 06:04:36;;;;;;;5.10;2.08;;;7.70;79.40;;;;;;4998435;28;20040;-77
2023/03/21 06:07:02;;;;;;;3.28;1.80;;;7.70;79.60;;;;;;5013773;28;20037;-75
2023/03/21 06:09:28;;;;;;;3.10;2.08;;;7.70;79.60;;;;;;4987098;28;20047;-78
2023/03/21 06:11:54;;;;;;;4.85;1.80;;;7.70;79.60;;;;;;5030618;28;20045;-78
2023/03/21 06:14:19;;;;;;;4.80;1.85;;;7.70;79.70;;;;;;5004026;28;20045;-78
2023/03/21 06:16:45;;;;;;;4.38;2.03;;;7.70;79.70;;;;;;5007806;28;20065;-78
2023/03/21 06:19:11;;;;;;;4.88;2.40;;;7.60;79.80;;;;;;5006461;28;20094;-77
2023/03/21 06:21:36;;;;;;;7.72;4.32;;;7.70;79.80;;;;;;5022247;28;20042;-78
2023/03/21 06:24:02;;;;;;;13.13;5.38;;;7.60;79.70;;;;;;5029342;28;20043;-78
2023/03/21 06:26:28;;;;;;;20.15;9.10;;;7.60;79.80;;;;;;4994028;28;20037;-79
2023/03/21 06:28:53;;;;;;;26.85;13.05;;;7.70;79.90;;;;;;4998595;28;20792;-78
2023/03/21 06:31:22;;;;;;;22.67;11.50;;;7.60;79.90;;;;;;5004167;28;20133;-78
2023/03/21 06:33:48;;;;;;;12.05;5.07;;;7.60;79.90;;;;;;5011080;28;20041;-78
2023/03/21 06:36:14;;;;;;;12.75;5.38;;;7.60;79.90;;;;;;4984069;28;20136;-78
2023/03/21 06:38:39;;;;;;;8.65;3.63;;;7.60;80.00;;;;;;5025027;28;20111;-77
2023/03/21 06:41:06;;;;;;;9.80;5.28;;;7.60;80.00;;;;;;5027729;28;20045;-77
2023/03/21 06:43:31;;;;;;;7.72;4.95;;;7.60;80.00;;;;;;5004119;28;20719;-79
2023/03/21 06:45:57;;;;;;;10.52;5.20;;;7.60;80.10;;;;;;5028335;28;20039;-77
2023/03/21 06:48:23;;;;;;;9.27;6.28;;;7.60;80.10;;;;;;5018171;28;20033;-77
2023/03/21 06:50:49;;;;;;;21.70;11.15;;;7.70;80.30;;;;;;5036306;28;20079;-77
2023/03/21 06:53:15;;;;;;;18.65;9.85;;;7.80;80.40;;;;;;5014453;28;20031;-77
2023/03/21 06:55:41;;;;;;;10.75;7.03;;;7.80;80.40;;;;;;5000814;28;20166;-79
2023/03/21 06:58:07;;;;;;;13.68;5.78;;;7.90;80.40;;;;;;5033527;28;20050;-76
2023/03/21 07:00:32;;;;;;;8.35;5.22;;;8.00;80.40;;;;;;5033202;28;20036;-79
2023/03/21 07:02:58;;;;;;;11.88;6.63;;;8.00;80.30;;;;;;5016269;28;20028;-77
2023/03/21 07:05:24;;;;;;;9.13;5.75;;;8.10;80.20;;;;;;5012287;28;20037;-78
2023/03/21 07:07:49;;;;;;;10.60;6.72;;;8.20;80.20;;;;;;4996176;28;20059;-78
2023/03/21 07:10:16;;;;;;;13.63;4.50;;;8.30;80.20;;;;;;5015293;28;20029;-79
2023/03/21 07:12:41;;;;;;;6.03;3.95;;;8.40;80.30;;;;;;4995995;28;20069;-78
2023/03/21 07:15:07;;;;;;;5.75;3.05;;;8.50;80.10;;;;;;5030305;28;20778;-77
2023/03/21 07:17:33;;;;;;;6.45;3.85;;;8.60;80.10;;;;;;5025984;28;20036;-79
2023/03/21 07:19:58;;;;;;;7.30;4.07;;;8.70;80.00;;;;;;4983293;28;20035;-78
2023/03/21 07:22:24;;;;;;;5.20;3.30;;;8.90;80.10;;;;;;5012665;28;20068;-78
2023/03/21 07:24:50;;;;;;;7.07;3.65;;;9.00;80.10;;;;;;4992798;28;20408;-79
2023/03/21 07:27:16;;;;;;;9.18;3.25;;;9.20;80.00;;;;;;5014565;28;20521;-78
2023/03/21 07:29:42;;;;;;;5.45;3.67;;;9.30;79.90;;;;;;5026984;28;20076;-77
2023/03/21 07:32:08;;;;;;;6.55;3.70;;;9.50;79.80;;;;;;5032390;28;20273;-79
2023/03/21 07:34:34;;;;;;;5.18;3.30;;;9.60;79.60;;;;;;5009725;28;20863;-78
2023/03/21 07:37:00;;;;;;;6.50;3.72;;;9.70;79.50;;;;;;5012443;28;20045;-75
2023/03/21 07:39:26;;;;;;;8.15;3.30;;;9.80;79.20;;;;;;5001988;28;20078;-79
2023/03/21 07:41:51;;;;;;;5.95;3.33;;;9.90;79.20;;;;;;5034892;28;20051;-78
2023/03/21 07:44:17;;;;;;;7.70;2.90;;;10.00;79.00;;;;;;5014413;28;20048;-78
2023/03/21 07:46:42;;;;;;;6.43;3.05;;;10.00;78.80;;;;;;5005163;28;20082;-78
2023/03/21 07:49:08;;;;;;;7.00;2.88;;;10.00;78.70;;;;;;5022271;28;20037;-78
2023/03/21 07:51:34;;;;;;;5.35;3.03;;;10.10;78.70;;;;;;5007325;28;20045;-78
2023/03/21 07:54:00;;;;;;;4.43;2.60;;;10.20;78.60;;;;;;5015651;28;20034;-78
2023/03/21 07:56:27;;;;;;;6.60;2.63;;;10.30;78.70;;;;;;4998367;28;20120;-78
2023/03/21 07:58:52;;;;;;;7.85;3.08;;;10.40;78.60;;;;;;4999979;28;20037;-78
2023/03/21 08:01:18;;;;;;;6.72;3.22;;;10.60;78.30;;;;;;5043987;28;20731;-78
2023/03/21 08:03:43;;;;;;;5.93;3.17;;;10.80;77.90;;;;;;5017917;28;20029;-79
2023/03/21 08:06:09;;;;;;;5.28;2.78;;;10.90;77.30;;;;;;5025819;28;20041;-77
2023/03/21 08:08:35;;;;;;;4.10;1.95;;;11.00;77.10;;;;;;4997688;28;20115;-77
2023/03/21 08:11:00;;;;;;;8.88;2.90;;;11.10;76.80;;;;;;5027127;28;20132;-79
2023/03/21 08:13:26;;;;;;;7.07;2.85;;;11.20;76.60;;;;;;4978228;28;20040;-79
2023/03/21 08:15:52;;;;;;;4.45;2.35;;;11.20;76.30;;;;;;5032213;28;20040;-79
2023/03/21 08:18:17;;;;;;;5.95;2.85;;;11.30;76.10;;;;;;5015454;28;20064;-79
2023/03/21 08:20:43;;;;;;;7.82;2.20;;;11.30;75.80;;;;;;5033616;28;20048;-79
2023/03/21 08:23:08;;;;;;;4.38;2.80;;;11.40;75.60;;;;;;5035213;28;20068;-77
2023/03/21 08:25:34;;;;;;;5.90;2.80;;;11.40;75.30;;;;;;5011940;28;20080;-79
2023/03/21 08:27:59;;;;;;;4.07;2.80;;;11.50;75.20;;;;;;5028291;28;20045;-78
2023/03/21 08:30:26;;;;;;;5.68;3.28;;;11.50;74.90;;;;;;5025459;28;20061;-79
2023/03/21 08:32:56;;;;;;;6.53;3.10;;;11.60;74.70;;;;;;5001699;28;20033;-79
2023/03/21 08:35:21;;;;;;;5.25;2.75;;;11.70;74.60;;;;;;5024008;28;20706;-79
2023/03/21 08:37:47;;;;;;;4.07;2.28;;;11.80;74.60;;;;;;5030167;28;20119;-78
2023/03/21 08:40:14;;;;;;;4.22;2.78;;;12.00;74.50;;;;;;5032584;28;20870;-79
2023/03/21 08:42:40;;;;;;;5.03;2.22;;;12.20;74.30;;;;;;5019207;28;20636;-77
2023/03/21 08:45:06;;;;;;;5.88;2.55;;;12.30;74.00;;;;;;5028438;28;20043;-79
2023/03/21 08:47:32;;;;;;;8.57;3.08;;;12.50;73.80;;;;;;5016772;28;20578;-79
2023/03/21 08:50:00;;;;;;;6.63;2.40;;;12.70;73.30;;;;;;4997502;28;20025;-78
2023/03/21 08:52:26;;;;;;;8.43;2.70;;;12.90;73.00;;;;;;5034815;28;20749;-78
2023/03/21 08:54:52;;;;;;;8.43;2.70;;;13.10;72.70;;;;;;5014200;28;20028;-78
2023/03/21 08:57:18;;;;;;;6.03;2.70;;;13.30;72.30;;;;;;4998841;28;20728;-77
2023/03/21 08:59:43;;;;;;;5.70;2.38;;;13.50;72.10;;;;;;5016886;28;20041;-78
2023/03/21 09:02:12;;;;;;;8.27;3.08;;;13.70;71.80;;;;;;5048339;28;20036;-78
2023/03/21 09:04:38;;;;;;;9.50;3.92;;;13.90;71.50;;;;;;5000228;28;20041;-78
2023/03/21 09:07:04;;;;;;;6.18;3.00;;;14.00;71.00;;;;;;5020881;28;20604;-78
2023/03/21 09:09:30;;;;;;;8.02;3.13;;;14.20;70.50;;;;;;5029319;28;20090;-78
2023/03/21 09:11:56;;;;;;;14.77;4.78;;;14.30;70.20;;;;;;4996577;28;20041;-79
2023/03/21 09:14:21;;;;;;;5.53;2.90;;;14.50;69.60;;;;;;5015382;28;20057;-78
2023/03/21 09:16:47;;;;;;;5.35;2.60;;;14.60;69.20;;;;;;4987332;28;20072;-79
2023/03/21 09:19:12;;;;;;;5.90;3.00;;;14.80;68.90;;;;;;5015303;28;20029;-79
2023/03/21 09:21:39;;;;;;;6.63;3.20;;;14.90;68.50;;;;;;5006009;28;20040;-78
2023/03/21 09:24:05;;;;;;;4.65;2.97;;;15.00;68.00;;;;;;5012959;28;20037;-78
2023/03/21 09:26:31;;;;;;;6.53;3.13;;;15.20;67.50;;;;;;5009071;28;20029;-78
2023/03/21 09:28:57;;;;;;;7.63;4.10;;;15.40;67.40;;;;;;5003531;28;20038;-78
2023/03/21 09:31:23;;;;;;;5.82;2.83;;;15.50;67.00;;;;;;5008663;28;20046;-79
2023/03/21 09:33:50;;;;;;;14.80;5.38;;;15.60;66.60;;;;;;5031486;28;20041;-78
2023/03/21 09:36:17;;;;;;;10.52;4.80;;;15.70;66.20;;;;;;4995383;28;20059;-78
2023/03/21 09:38:46;;;;;;;9.45;4.03;;;15.80;65.80;;;;;;5008862;28;20041;-78
2023/03/21 09:41:30;;;;;;;7.40;3.50;;;16.00;65.50;;;;;;4998909;28;20033;-78
2023/03/21 09:44:21;;;;;;;5.68;3.38;;;16.10;64.90;;;;;;5045335;28;20040;-79
2023/03/21 09:47:20;;;;;;;7.32;2.72;;;16.30;63.70;;;;;;5033627;28;20108;-78
2023/03/21 09:49:50;;;;;;;4.93;2.70;;;16.40;63.50;;;;;;5031216;28;20131;-77
2023/03/21 09:52:25;;;;;;;6.43;2.40;;;16.50;64.10;;;;;;5015555;28;20806;-79
2023/03/21 09:54:52;;;;;;;6.15;2.80;;;16.60;63.60;;;;;;5013333;28;20556;-79
2023/03/21 09:57:21;;;;;;;7.32;2.85;;;16.80;63.80;;;;;;5030495;28;20037;-79
2023/03/21 09:59:47;;;;;;;7.38;2.95;;;16.90;63.30;;;;;;5032106;28;20045;-77
2023/03/21 10:02:21;;;;;;;10.07;2.60;;;17.00;62.80;;;;;;5001413;28;20040;-78
2023/03/21 10:04:47;;;;;;;5.65;2.55;;;17.10;62.20;;;;;;5019213;28;20053;-78
2023/03/21 10:07:16;;;;;;;7.53;2.35;;;17.10;62.10;;;;;;5012410;28;20149;-79
2023/03/21 10:09:43;;;;;;;8.85;2.60;;;17.10;61.80;;;;;;4989666;28;20691;-79
2023/03/21 10:12:29;;;;;;;8.23;2.97;;;17.20;61.80;;;;;;5021271;28;20090;-78
2023/03/21 10:14:56;;;;;;;6.93;2.53;;;17.30;60.80;;;;;;5015434;28;20037;-79
2023/03/21 10:17:32;;;;;;;9.02;2.72;;;17.40;61.30;;;;;;5003486;28;20037;-78
2023/03/21 10:20:13;;;;;;;6.80;2.38;;;17.50;60.50;;;;;;5016124;28;20040;-79
2023/03/21 10:22:39;;;;;;;6.35;2.00;;;17.60;60.30;;;;;;5021908;28;20124;-76
2023/03/21 10:25:05;;;;;;;5.93;1.60;;;17.70;60.50;;;;;;5021586;28;20043;-79
2023/03/21 10:27:31;;;;;;;4.30;1.90;;;17.80;60.50;;;;;;5020141;28;20039;-79
2023/03/21 10:29:57;;;;;;;7.72;3.50;;;18.00;60.20;;;;;;5017910;28;20044;-77
2023/03/21 10:32:23;;;;;;;7.20;2.40;;;18.10;60.00;;;;;;5047399;28;20036;-78
2023/03/21 10:34:50;;;;;;;6.65;2.75;;;18.10;59.80;;;;;;5032691;28;20154;-80
2023/03/21 10:37:16;;;;;;;6.22;2.55;;;18.20;59.30;;;;;;5021824;28;20123;-79
2023/03/21 10:39:45;;;;;;;4.80;2.05;;;18.30;59.40;;;;;;5050567;28;20040;-79
2023/03/21 10:42:21;;;;;;;6.03;2.75;;;18.50;59.20;;;;;;5013468;28;20186;-80
2023/03/21 10:44:48;;;;;;;7.30;4.38;;;18.60;58.40;;;;;;5015733;28;20082;-78
2023/03/21 10:47:18;;;;;;;3.92;2.33;;;18.70;58.50;;;;;;5023105;28;20172;-78
2023/03/21 10:49:45;;;;;;;5.47;2.65;;;18.80;58.50;;;;;;5017552;28;20032;-78
2023/03/21 10:52:10;;;;;;;4.20;1.85;;;18.70;58.30;;;;;;5016183;28;20044;-78
2023/03/21 10:54:36;;;;;;;5.95;2.58;;;18.90;58.30;;;;;;4990126;28;20029;-78
2023/03/21 10:57:10;;;;;;;4.43;2.03;;;18.90;58.20;;;;;;5013166;28;20044;-79
2023/03/21 10:59:44;;;;;;;4.57;2.20;;;19.00;57.80;;;;;;5004171;28;20033;-79
2023/03/21 11:02:19;;;;;;;6.07;2.40;;;19.00;58.00;;;;;;5024059;28;20039;-78
2023/03/21 11:04:45;;;;;;;6.57;2.75;;;19.00;57.40;;;;;;5015258;28;20044;-78
2023/03/21 11:07:13;;;;;;;5.47;1.88;;;19.00;57.50;;;;;;5011825;28;20399;-77
2023/03/21 11:09:49;;;;;;;5.28;1.95;;;19.10;57.20;;;;;;5013991;28;20041;-79
2023/03/21 11:12:16;;;;;;;9.02;2.70;;;19.10;56.80;;;;;;5006213;28;20156;-78
2023/03/21 11:14:46;;;;;;;4.13;2.08;;;19.10;56.70;;;;;;5010573;28;20052;-77
2023/03/21 11:17:33;;;;;;;7.28;2.00;;;19.10;56.40;;;;;;5031512;28;20033;-78
2023/03/21 11:20:00;;;;;;;5.50;2.17;;;19.10;56.20;;;;;;5022182;28;20040;-78
2023/03/21 11:22:30;;;;;;;3.47;1.75;;;19.20;56.70;;;;;;5029911;28;20033;-78
2023/03/21 11:24:59;;;;;;;5.93;1.83;;;19.20;56.00;;;;;;5029695;28;20029;-78
2023/03/21 11:27:28;;;;;;;2.97;1.48;;;19.20;55.90;;;;;;5019849;28;20037;-78
2023/03/21 11:29:54;;;;;;;4.32;1.40;;;19.10;56.00;;;;;;5017997;28;20106;-79
2023/03/21 11:32:20;;;;;;;4.65;2.15;;;19.20;56.10;;;;;;5025184;28;20040;-80
2023/03/21 11:34:46;;;;;;;7.25;2.70;;;19.20;55.90;;;;;;5029828;28;20460;-79
2023/03/21 11:37:26;;;;;;;5.93;1.83;;;19.20;55.80;;;;;;5001735;28;20069;-78
2023/03/21 11:40:18;;;;;;;4.45;1.70;;;19.20;55.10;;;;;;4995308;28;20528;-79
2023/03/21 11:42:46;;;;;;;3.47;1.58;;;19.30;54.90;;;;;;5007954;28;20045;-79
2023/03/21 11:45:15;;;;;;;6.35;1.73;;;19.20;55.50;;;;;;4965924;28;20113;-78
2023/03/21 11:47:40;;;;;;;4.80;1.40;;;19.30;55.30;;;;;;4990441;28;20261;-77
2023/03/21 11:50:33;;;;;;;5.28;1.90;;;19.30;55.20;;;;;;4989968;28;20418;-79
2023/03/21 11:53:14;;;;;;;4.03;1.50;;;19.30;54.30;;;;;;5005765;28;20558;-79
2023/03/21 11:55:45;;;;;;;5.22;1.30;;;19.30;54.70;;;;;;5010839;28;20045;-79
2023/03/21 11:58:20;;;;;;;5.28;1.58;;;19.30;54.80;;;;;;4992731;28;20627;-78
2023/03/21 12:01:11;;;;;;;3.75;1.20;;;19.30;54.70;;;;;;5006996;28;20539;-78
2023/03/21 12:04:03;;;;;;;2.88;1.23;;;19.30;54.60;;;;;;4998367;28;20823;-80
2023/03/21 12:06:54;;;;;;;3.05;1.10;;;19.30;54.20;;;;;;4998324;28;20046;-79
2023/03/21 12:09:40;;;;;;;3.00;1.25;;;19.30;54.50;;;;;;4978385;28;20038;-78
2023/03/21 12:12:08;;;;;;;2.42;1.25;;;19.30;54.10;;;;;;4985146;28;20042;-80
2023/03/21 12:14:42;;;;;;;5.95;1.10;;;19.30;54.60;;;;;;5005572;28;20049;-81
2023/03/21 12:17:17;;;;;;;3.17;1.13;;;19.40;54.50;;;;;;5003174;28;20522;-79
2023/03/21 12:19:55;;;;;;;3.13;0.80;;;19.40;53.70;;;;;;4996396;28;20034;-79
2023/03/21 12:22:26;;;;;;;3.15;0.95;;;19.40;53.60;;;;;;5001247;28;20041;-79
2023/03/21 12:24:52;;;;;;;;;;;19.30;53.10;;;;;;5022362;28;20045;-79
2023/03/21 12:27:39;;;;;;;1.55;0.68;;;19.30;53.70;;;;;;5010046;28;19998;-78
2023/03/21 12:30:31;;;;;;;2.17;1.02;;;19.30;52.80;;;;;;5008557;28;20034;-79
2023/03/21 12:33:12;;;;;;;2.50;1.05;;;19.30;52.40;;;;;;4972371;28;20107;-79
2023/03/21 12:36:00;;;;;;;2.95;1.05;;;19.20;53.20;;;;;;4973703;28;20122;-76
2023/03/21 12:38:30;;;;;;;2.03;0.90;;;19.20;52.20;;;;;;5005503;28;20045;-79
2023/03/21 12:41:22;;;;;;;5.13;1.00;;;19.20;53.00;;;;;;5006350;28;20041;-80
2023/03/21 12:44:07;;;;;;;6.75;1.00;;;19.10;52.80;;;;;;5002606;28;20034;-79
2023/03/21 12:47:01;;;;;;;5.80;1.30;;;19.10;52.40;;;;;;4989702;28;20037;-79
2023/03/21 12:49:44;;;;;;;4.38;1.63;;;19.10;52.00;;;;;;5005503;28;20030;-80
2023/03/21 12:52:15;;;;;;;2.03;0.95;;;19.00;52.90;;;;;;5007557;28;20045;-79
2023/03/21 12:55:06;;;;;;;4.05;1.00;;;19.00;52.70;;;;;;5017830;28;20041;-79
2023/03/21 12:57:46;;;;;;;2.97;0.88;;;18.90;52.80;;;;;;5010100;28;20711;-78
2023/03/21 13:00:21;;;;;;;3.72;1.00;;;19.00;52.80;;;;;;5007104;28;20045;-79
2023/03/21 13:02:58;;;;;;;2.30;0.90;;;18.90;52.20;;;;;;5003596;28;20037;-78
2023/03/21 13:05:26;;;;;;;2.05;0.80;;;18.80;52.20;;;;;;4993472;28;20506;-78